createdAt,value
2022-10-17T00:00:36.896Z,97073.09
2022-10-17T00:03:03.553Z,97083.38
2022-10-17T00:05:30.190Z,97092.25
2022-10-17T00:07:56.868Z,97103.44
2022-10-17T00:10:23.495Z,97099.41
2022-10-17T00:12:51.682Z,97090.56
2022-10-17T00:15:20.446Z,97088.13
2022-10-17T00:17:47.044Z,97095.72
2022-10-17T00:20:14.243Z,97101.50
2022-10-17T00:22:40.834Z,97094.16
2022-10-17T00:25:07.966Z,97094.38
2022-10-17T00:27:39.356Z,97104.06
2022-10-17T00:30:07.931Z,97110.50
2022-10-17T00:32:34.518Z,97103.88
2022-10-17T00:35:01.591Z,97103.81
2022-10-17T00:37:28.185Z,97110.00
2022-10-17T00:39:54.999Z,97116.56
2022-10-17T00:42:22.013Z,97120.63
2022-10-17T00:44:48.756Z,97116.41
2022-10-17T00:47:22.796Z,97109.41
2022-10-17T00:49:49.664Z,97107.31
2022-10-17T00:52:21.404Z,97105.81
2022-10-17T00:54:58.408Z,97112.78
2022-10-17T00:57:26.134Z,97107.69
2022-10-17T00:59:55.984Z,97103.44
2022-10-17T01:02:22.729Z,97107.22
2022-10-17T01:04:55.033Z,97116.78
2022-10-17T01:07:22.820Z,97109.41
2022-10-17T01:09:50.151Z,97127.53
2022-10-17T01:12:25.967Z,97122.78
2022-10-17T01:15:22.894Z,97102.50
2022-10-17T01:18:10.219Z,97118.88
2022-10-17T01:21:06.319Z,97122.31
2022-10-17T01:24:05.585Z,97120.13
2022-10-17T01:27:04.722Z,97130.16
2022-10-17T01:29:47.693Z,97120.44
2022-10-17T01:32:18.802Z,97125.53
2022-10-17T01:34:54.219Z,97122.75
2022-10-17T01:37:32.777Z,97122.47
2022-10-17T01:40:31.733Z,97119.69
2022-10-17T01:43:12.484Z,97146.03
2022-10-17T01:46:02.826Z,97133.38
2022-10-17T01:48:42.879Z,97109.25
2022-10-17T01:51:17.051Z,97127.25
2022-10-17T01:53:50.339Z,97145.31
2022-10-17T01:56:18.410Z,97139.19
2022-10-17T01:58:50.887Z,97144.22
2022-10-17T02:01:19.418Z,97138.44
2022-10-17T02:03:48.715Z,97136.06
2022-10-17T02:06:15.283Z,97121.91
2022-10-17T02:08:48.590Z,97117.75
2022-10-17T02:11:21.533Z,97127.22
2022-10-17T02:14:14.420Z,97115.66
2022-10-17T02:16:53.111Z,97129.56
2022-10-17T02:19:41.341Z,97153.66
2022-10-17T02:22:30.060Z,97140.47
2022-10-17T02:25:09.638Z,97125.16
2022-10-17T02:27:48.048Z,97117.66
2022-10-17T02:30:27.150Z,97109.75
2022-10-17T02:33:09.276Z,97111.72
2022-10-17T02:35:40.006Z,97109.94
2022-10-17T02:38:10.948Z,97107.81
2022-10-17T02:40:39.491Z,97109.69
2022-10-17T02:43:06.718Z,97112.59
2022-10-17T02:45:37.690Z,97123.00
2022-10-17T02:48:37.158Z,97118.88
2022-10-17T02:51:09.823Z,97105.38
2022-10-17T02:53:43.801Z,97104.06
2022-10-17T02:56:17.492Z,97111.09
2022-10-17T02:58:50.164Z,97119.25
2022-10-17T03:01:18.055Z,97127.66
2022-10-17T03:03:44.661Z,97124.53
2022-10-17T03:06:11.352Z,97129.56
2022-10-17T03:11:26.079Z,97130.75
2022-10-17T03:13:52.631Z,97119.63
2022-10-17T03:16:19.293Z,97115.38
2022-10-17T03:18:49.302Z,97127.28
2022-10-17T03:21:17.086Z,97123.56
2022-10-17T03:23:43.708Z,97137.72
2022-10-17T03:26:10.926Z,97141.91
2022-10-17T03:28:38.450Z,97136.78
2022-10-17T03:31:14.935Z,97138.59
2022-10-17T03:33:41.851Z,97148.00
2022-10-17T03:36:11.264Z,97138.94
2022-10-17T03:38:38.493Z,97139.28
2022-10-17T03:41:06.569Z,97140.75
2022-10-17T03:43:33.543Z,97147.97
2022-10-17T03:46:01.179Z,97137.84
2022-10-17T03:48:30.216Z,97135.97
2022-10-17T03:51:08.556Z,97142.44
2022-10-17T03:53:41.025Z,97128.66
2022-10-17T03:56:12.786Z,97140.06
2022-10-17T03:58:40.466Z,97142.00
2022-10-17T04:01:09.338Z,97133.59
2022-10-17T04:03:37.243Z,97138.00
2022-10-17T04:06:05.171Z,97131.00
2022-10-17T04:08:34.910Z,97137.41
2022-10-17T04:11:08.703Z,97150.84
2022-10-17T04:13:35.668Z,97153.69
2022-10-17T04:16:05.369Z,97172.44
2022-10-17T04:18:32.657Z,97174.50
2022-10-17T04:21:02.751Z,97187.72
2022-10-17T04:23:30.659Z,97192.59
2022-10-17T04:26:04.807Z,97195.81
2022-10-17T04:28:32.572Z,97193.34
2022-10-17T04:31:01.319Z,97198.69
2022-10-17T04:33:33.677Z,97202.94
2022-10-17T04:36:00.548Z,97193.81
2022-10-17T04:38:28.812Z,97187.72
2022-10-17T04:41:04.555Z,97171.00
2022-10-17T04:43:32.702Z,97173.25
2022-10-17T04:46:00.234Z,97164.19
2022-10-17T04:48:27.737Z,97162.78
2022-10-17T04:50:55.165Z,97170.66
2022-10-17T04:53:37.025Z,97163.34
2022-10-17T04:56:14.972Z,97152.69
2022-10-17T04:58:42.930Z,97161.91
2022-10-17T05:01:12.871Z,97191.13
2022-10-17T05:03:41.621Z,97158.53
2022-10-17T05:06:10.716Z,97168.44
2022-10-17T05:08:38.389Z,97162.56
2022-10-17T05:11:14.885Z,97169.78
2022-10-17T05:13:41.422Z,97165.25
2022-10-17T05:16:10.943Z,97160.53
2022-10-17T05:18:37.641Z,97174.19
2022-10-17T05:21:04.626Z,97177.22
2022-10-17T05:23:32.855Z,97183.25
2022-10-17T05:25:59.625Z,97183.03
2022-10-17T05:28:26.894Z,97186.31
2022-10-17T05:30:56.718Z,97174.97
2022-10-17T05:33:23.907Z,97169.75
2022-10-17T05:35:50.997Z,97174.41
2022-10-17T05:38:17.670Z,97196.41
2022-10-17T05:40:45.072Z,97205.69
2022-10-17T05:43:13.291Z,97197.16
2022-10-17T05:45:39.915Z,97194.88
2022-10-17T05:48:09.928Z,97179.47
2022-10-17T05:50:36.883Z,97181.88
2022-10-17T05:53:08.976Z,97183.97
2022-10-17T05:55:40.437Z,97185.16
2022-10-17T05:58:07.238Z,97189.75
2022-10-17T06:00:37.980Z,97185.72
2022-10-17T06:03:04.757Z,97185.16
2022-10-17T06:05:31.337Z,97183.75
2022-10-17T06:08:01.028Z,97184.50
2022-10-17T06:10:30.374Z,97199.09
2022-10-17T06:12:57.662Z,97211.94
2022-10-17T06:15:25.366Z,97204.84
2022-10-17T06:17:58.499Z,97205.56
2022-10-17T06:20:25.095Z,97236.84
2022-10-17T06:22:52.367Z,97217.16
2022-10-17T06:25:33.858Z,97253.16
2022-10-17T06:28:00.693Z,97255.81
2022-10-17T06:30:28.016Z,97242.50
2022-10-17T06:32:54.831Z,97241.47
2022-10-17T06:35:21.679Z,97235.63
2022-10-17T06:37:48.368Z,97224.22
2022-10-17T06:40:16.962Z,97220.28
2022-10-17T06:42:44.438Z,97207.78
2022-10-17T06:45:25.755Z,97201.28
2022-10-17T06:48:08.043Z,97195.06
2022-10-17T06:50:51.251Z,97191.44
2022-10-17T06:53:22.118Z,97185.19
2022-10-17T06:56:09.439Z,97179.28
2022-10-17T06:58:51.375Z,97145.13
2022-10-17T07:01:29.967Z,97143.63
2022-10-17T07:03:58.827Z,97127.56
2022-10-17T07:06:25.996Z,97112.75
2022-10-17T07:08:55.810Z,97111.84
2022-10-17T07:11:23.417Z,97147.59
2022-10-17T07:13:51.701Z,97182.94
2022-10-17T07:16:18.413Z,97259.28
2022-10-17T07:18:50.994Z,97338.53
2022-10-17T07:21:18.725Z,97409.50
2022-10-17T07:23:45.421Z,97467.00
2022-10-17T07:26:14.825Z,97486.03
2022-10-17T07:28:44.146Z,97513.91
2022-10-17T07:31:25.028Z,97523.66
2022-10-17T07:33:52.072Z,97551.41
2022-10-17T07:36:18.890Z,97556.56
2022-10-17T07:38:46.026Z,97606.06
2022-10-17T07:41:17.750Z,97585.16
2022-10-17T07:43:47.843Z,97664.88
2022-10-17T07:46:17.082Z,97677.50
2022-10-17T07:48:44.835Z,97671.09
2022-10-17T07:51:11.641Z,97684.03
2022-10-17T07:53:41.704Z,97710.66
2022-10-17T07:56:11.983Z,97729.81
2022-10-17T07:58:38.910Z,97747.84
2022-10-17T08:01:10.754Z,97764.03
2022-10-17T08:03:41.945Z,97776.66
2022-10-17T08:06:08.711Z,97789.03
2022-10-17T08:08:35.414Z,97807.47
2022-10-17T08:11:05.276Z,97794.13
2022-10-17T08:13:32.038Z,97764.78
2022-10-17T08:16:00.419Z,97804.97
2022-10-17T08:18:26.999Z,97790.94
2022-10-17T08:20:56.760Z,97856.63
2022-10-17T08:23:26.426Z,97874.75
2022-10-17T08:25:53.007Z,97855.19
2022-10-17T08:28:19.538Z,97841.16
2022-10-17T08:30:46.095Z,97829.44
2022-10-17T08:33:12.638Z,97846.19
2022-10-17T08:35:39.180Z,97837.25
2022-10-17T08:38:05.740Z,97893.44
2022-10-17T08:40:35.517Z,97899.50
2022-10-17T08:43:21.185Z,97925.50
2022-10-17T08:45:54.701Z,97929.16
2022-10-17T08:48:24.467Z,97934.47
2022-10-17T08:50:58.170Z,97955.97
2022-10-17T08:53:32.003Z,97950.66
2022-10-17T08:56:01.107Z,97951.00
2022-10-17T08:58:32.400Z,97975.34
2022-10-17T09:01:14.699Z,97960.25
2022-10-17T09:03:55.661Z,97982.34
2022-10-17T09:06:31.865Z,98026.00
2022-10-17T09:09:17.742Z,97989.81
2022-10-17T09:12:12.743Z,98032.72
2022-10-17T09:15:16.370Z,98017.44
2022-10-17T09:18:03.303Z,98090.03
2022-10-17T09:20:47.025Z,98101.38
2022-10-17T09:23:18.541Z,98123.28
2022-10-17T09:25:49.783Z,98085.28
2022-10-17T09:28:21.627Z,98093.88
2022-10-17T09:31:25.038Z,98143.75
2022-10-17T09:33:55.213Z,98157.22
2022-10-17T09:36:27.432Z,98171.91
2022-10-17T09:38:56.460Z,98188.19
2022-10-17T09:41:49.377Z,98174.41
2022-10-17T09:44:29.233Z,98182.19
2022-10-17T09:47:06.139Z,98245.03
2022-10-17T09:49:35.939Z,98202.31
2022-10-17T09:52:18.516Z,98206.38
2022-10-17T09:54:54.540Z,98227.38
2022-10-17T09:57:22.331Z,98277.81
2022-10-17T10:00:05.094Z,98278.50
2022-10-17T10:02:40.943Z,98272.66
2022-10-17T10:05:17.773Z,98306.13
2022-10-17T10:08:00.380Z,98340.78
2022-10-17T10:10:28.629Z,98303.97
2022-10-17T10:13:21.550Z,98291.84
2022-10-17T10:15:50.782Z,98283.94
2022-10-17T10:18:26.587Z,98283.66
2022-10-17T10:21:22.361Z,98258.97
2022-10-17T10:24:13.366Z,98319.75
2022-10-17T10:26:44.277Z,98284.81
2022-10-17T10:29:31.322Z,98336.91
2022-10-17T10:32:16.515Z,98339.59
2022-10-17T10:34:55.609Z,98355.19
2022-10-17T10:37:22.192Z,98371.13
2022-10-17T10:39:58.097Z,98395.47
2022-10-17T10:42:50.241Z,98389.78
2022-10-17T10:48:34.484Z,98430.81
2022-10-17T10:51:05.992Z,98395.47
2022-10-17T10:53:47.175Z,98433.91
2022-10-17T10:56:28.381Z,98405.69
2022-10-17T10:59:00.567Z,98447.16
2022-10-17T11:01:30.721Z,98428.19
2022-10-17T11:04:18.697Z,98392.44
2022-10-17T11:06:46.353Z,98443.38
2022-10-17T11:09:33.015Z,98389.00
2022-10-17T11:12:28.320Z,98404.56
2022-10-17T11:15:18.313Z,98411.03
2022-10-17T11:17:57.812Z,98420.84
2022-10-17T11:20:34.222Z,98420.84
2022-10-17T11:23:14.433Z,98407.19
2022-10-17T11:25:42.155Z,98394.13
2022-10-17T11:28:23.657Z,98418.94
2022-10-17T11:31:04.512Z,98423.13
2022-10-17T11:33:48.857Z,98391.66
2022-10-17T11:36:18.058Z,98365.88
2022-10-17T11:39:04.918Z,98367.78
2022-10-17T11:41:46.047Z,98357.59
2022-10-17T11:44:38.435Z,98379.22
2022-10-17T11:47:14.287Z,98401.81
2022-10-17T11:49:50.989Z,98422.03
2022-10-17T11:53:05.033Z,98472.31
2022-10-17T11:55:32.534Z,98449.72
2022-10-17T11:58:24.281Z,98438.69
2022-10-17T12:01:23.693Z,98441.06
2022-10-17T12:04:15.401Z,98436.94
2022-10-17T12:07:05.141Z,98424.69
2022-10-17T12:09:56.960Z,98457.84
2022-10-17T12:12:32.311Z,98481.81
2022-10-17T12:15:20.748Z,98454.66
2022-10-17T12:17:56.098Z,98450.22
2022-10-17T12:20:25.401Z,98438.00
2022-10-17T12:23:04.606Z,98439.59
2022-10-17T12:25:34.421Z,98465.03
2022-10-17T12:28:07.235Z,98467.66
2022-10-17T12:30:34.747Z,98433.06
2022-10-17T12:33:15.224Z,98405.94
2022-10-17T12:35:41.778Z,98451.69
2022-10-17T12:38:20.389Z,98470.66
2022-10-17T12:40:50.083Z,98440.66
2022-10-17T12:43:16.600Z,98442.59
2022-10-17T12:45:51.600Z,98437.09
2022-10-17T12:48:33.234Z,98407.84
2022-10-17T12:51:34.767Z,98437.91
2022-10-17T12:54:07.186Z,98410.13
2022-10-17T12:56:42.092Z,98382.84
2022-10-17T12:59:20.073Z,98424.56
2022-10-17T13:01:50.505Z,98444.78
2022-10-17T13:04:18.479Z,98430.03
2022-10-17T13:06:48.194Z,98439.13
2022-10-17T13:09:22.720Z,98444.81
2022-10-17T13:11:50.446Z,98427.28
2022-10-17T13:14:20.955Z,98461.97
2022-10-17T13:16:55.515Z,98441.47
2022-10-17T13:19:25.292Z,98455.47
2022-10-17T13:22:06.806Z,98472.63
2022-10-17T13:24:39.707Z,98498.91
2022-10-17T13:27:22.227Z,98509.91
2022-10-17T13:29:49.096Z,98482.13
2022-10-17T13:32:15.675Z,98504.22
2022-10-17T13:34:42.423Z,98489.31
2022-10-17T13:37:14.855Z,98496.22
2022-10-17T13:39:54.865Z,98533.53
2022-10-17T13:42:31.722Z,98535.69
2022-10-17T13:44:59.542Z,98513.59
2022-10-17T13:47:29.616Z,98511.41
2022-10-17T13:49:57.878Z,98511.03
2022-10-17T13:52:28.604Z,98510.50
2022-10-17T13:55:05.915Z,98505.50
2022-10-17T13:57:33.032Z,98498.94
2022-10-17T14:00:03.119Z,98489.47
2022-10-17T14:02:41.311Z,98485.66
2022-10-17T14:05:17.750Z,98498.53
2022-10-17T14:08:11.505Z,98486.72
2022-10-17T14:10:41.045Z,98482.28
2022-10-17T14:13:18.875Z,98471.31
2022-10-17T14:15:46.125Z,98467.97
2022-10-17T14:18:26.395Z,98451.25
2022-10-17T14:23:44.335Z,98436.56
2022-10-17T14:26:13.099Z,98429.75
2022-10-17T14:28:41.903Z,98413.91
2022-10-17T14:31:25.806Z,98413.59
2022-10-17T14:33:53.999Z,98429.56
2022-10-17T14:36:29.925Z,98456.09
2022-10-17T14:38:56.891Z,98419.09
2022-10-17T14:41:42.751Z,98414.38
2022-10-17T14:44:19.215Z,98427.63
2022-10-17T14:46:50.760Z,98434.09
2022-10-17T14:49:28.713Z,98408.75
2022-10-17T14:52:18.396Z,98398.72
2022-10-17T14:54:47.253Z,98422.66
2022-10-17T14:57:19.961Z,98402.75
2022-10-17T14:59:55.441Z,98414.53
2022-10-17T15:02:27.682Z,98385.06
2022-10-17T15:04:54.667Z,98409.28
2022-10-17T15:07:22.180Z,98388.78
2022-10-17T15:09:50.812Z,98358.28
2022-10-17T15:12:23.365Z,98372.31
2022-10-17T15:14:50.817Z,98378.84
2022-10-17T15:17:26.346Z,98388.31
2022-10-17T15:19:53.466Z,98391.22
2022-10-17T15:22:20.139Z,98354.94
2022-10-17T15:24:46.844Z,98372.47
2022-10-17T15:27:21.871Z,98347.28
2022-10-17T15:29:49.201Z,98339.47
2022-10-17T15:32:16.161Z,98334.88
2022-10-17T15:34:42.729Z,98335.34
2022-10-17T15:37:17.570Z,98338.22
2022-10-17T15:39:45.831Z,98294.53
2022-10-17T15:42:12.724Z,98303.06
2022-10-17T15:44:40.786Z,98324.25
2022-10-17T15:47:17.046Z,98325.44
2022-10-17T15:49:43.607Z,98318.50
2022-10-17T15:52:10.192Z,98300.03
2022-10-17T15:54:36.738Z,98303.16
2022-10-17T15:57:03.383Z,98308.00
2022-10-17T15:59:33.353Z,98313.38
2022-10-17T16:01:59.885Z,98307.50
2022-10-17T16:04:27.709Z,98305.53
2022-10-17T16:06:54.256Z,98302.47
2022-10-17T16:09:20.791Z,98298.63
2022-10-17T16:11:47.388Z,98309.16
2022-10-17T16:14:16.965Z,98301.91
2022-10-17T16:16:43.746Z,98294.56
2022-10-17T16:19:10.390Z,98299.53
2022-10-17T16:21:39.707Z,98300.63
2022-10-17T16:24:06.890Z,98291.69
2022-10-17T16:26:33.550Z,98269.25
2022-10-17T16:29:02.975Z,98273.78
2022-10-17T16:31:39.565Z,98274.81
2022-10-17T16:34:06.873Z,98273.66
2022-10-17T16:36:33.978Z,98281.59
2022-10-17T16:39:00.715Z,98258.00
2022-10-17T16:41:29.539Z,98271.66
2022-10-17T16:43:59.386Z,98272.31
2022-10-17T16:46:28.280Z,98255.22
2022-10-17T16:48:55.208Z,98246.44
2022-10-17T16:51:22.598Z,98261.53
2022-10-17T16:53:52.711Z,98255.44
2022-10-17T16:56:21.645Z,98248.91
2022-10-17T16:58:49.305Z,98254.88
2022-10-17T17:01:23.197Z,98253.78
2022-10-17T17:03:50.409Z,98238.22
2022-10-17T17:06:20.815Z,98248.72
2022-10-17T17:08:47.715Z,98235.75
2022-10-17T17:11:17.378Z,98229.28
2022-10-17T17:13:43.992Z,98240.94
2022-10-17T17:16:17.622Z,98230.53
2022-10-17T17:18:46.070Z,98235.81
2022-10-17T17:21:13.988Z,98235.19
2022-10-17T17:23:42.183Z,98228.75
2022-10-17T17:26:18.254Z,98211.31
2022-10-17T17:28:45.147Z,98194.84
2022-10-17T17:31:14.750Z,98198.72
2022-10-17T17:33:42.309Z,98210.50
2022-10-17T17:36:12.285Z,98197.19
2022-10-17T17:38:41.348Z,98181.50
2022-10-17T17:41:07.915Z,98186.78
2022-10-17T17:43:35.912Z,98168.53
2022-10-17T17:46:02.629Z,98174.88
2022-10-17T17:48:29.616Z,98174.44
2022-10-17T17:50:56.799Z,98188.16
2022-10-17T17:53:23.443Z,98187.22
2022-10-17T17:56:03.763Z,98188.38
2022-10-17T17:58:30.374Z,98197.50
2022-10-17T18:00:57.402Z,98189.34
2022-10-17T18:03:24.500Z,98174.63
2022-10-17T18:05:51.211Z,98171.50
2022-10-17T18:08:17.992Z,98157.41
2022-10-17T18:10:49.519Z,98148.44
2022-10-17T18:13:16.754Z,98127.97
2022-10-17T18:15:44.052Z,98124.00
2022-10-17T18:18:10.736Z,98120.19
2022-10-17T18:20:43.316Z,98108.09
2022-10-17T18:23:10.878Z,98104.28
2022-10-17T18:25:37.525Z,98098.59
2022-10-17T18:28:04.419Z,98106.91
2022-10-17T18:30:33.761Z,98110.59
2022-10-17T18:33:01.241Z,98110.41
2022-10-17T18:35:27.817Z,98097.25
2022-10-17T18:37:56.809Z,98087.47
2022-10-17T18:40:23.473Z,98096.56
2022-10-17T18:42:50.015Z,98100.38
2022-10-17T18:45:17.474Z,98101.25
2022-10-17T18:47:47.205Z,98107.97
2022-10-17T18:50:14.802Z,98128.69
2022-10-17T18:52:41.494Z,98122.31
2022-10-17T18:55:08.573Z,98115.63
2022-10-17T18:57:35.167Z,98114.41
2022-10-17T19:00:01.797Z,98128.28
2022-10-17T19:02:28.593Z,98123.34
2022-10-17T19:04:55.354Z,98116.97
2022-10-17T19:07:22.142Z,98105.16
2022-10-17T19:09:49.281Z,98079.63
2022-10-17T19:12:16.046Z,98032.53
2022-10-17T19:14:42.596Z,98024.88
2022-10-17T19:17:09.184Z,98010.38
2022-10-17T19:19:36.124Z,97995.63
2022-10-17T19:22:03.523Z,97986.88
2022-10-17T19:24:30.264Z,97994.84
2022-10-17T19:26:58.552Z,97986.03
2022-10-17T19:29:27.686Z,97976.59
2022-10-17T19:34:40.767Z,97967.44
2022-10-17T19:37:07.374Z,97959.47
2022-10-17T19:39:33.946Z,97954.06
2022-10-17T19:42:05.869Z,97941.47
2022-10-17T19:44:34.043Z,97932.06
2022-10-17T19:47:00.577Z,97945.81
2022-10-17T19:49:27.189Z,97927.94
2022-10-17T19:51:53.840Z,97914.34
2022-10-17T19:54:20.518Z,97910.94
2022-10-17T19:56:47.303Z,97895.50
2022-10-17T19:59:15.426Z,97884.22
2022-10-17T20:01:42.733Z,97881.09
2022-10-17T20:04:11.091Z,97877.50
2022-10-17T20:06:38.228Z,97868.53
2022-10-17T20:09:06.147Z,97861.06
2022-10-17T20:11:32.710Z,97871.47
2022-10-17T20:14:00.625Z,97878.31
2022-10-17T20:16:29.966Z,97874.50
2022-10-17T20:19:01.398Z,97877.38
2022-10-17T20:21:31.650Z,97869.28
2022-10-17T20:23:59.918Z,97854.63
2022-10-17T20:26:42.864Z,97854.63
2022-10-17T20:29:14.067Z,97851.41
2022-10-17T20:31:42.189Z,97856.41
2022-10-17T20:34:11.857Z,97860.97
2022-10-17T20:36:38.414Z,97858.34
2022-10-17T20:39:06.134Z,97867.78
2022-10-17T20:41:33.762Z,97890.53
2022-10-17T20:44:00.299Z,97871.16
2022-10-17T20:46:36.925Z,97878.47
2022-10-17T20:49:08.437Z,97868.78
2022-10-17T20:51:36.028Z,97849.63
2022-10-17T20:54:03.267Z,97845.81
2022-10-17T20:56:32.970Z,97844.19
2022-10-17T20:59:05.830Z,97825.81
2022-10-17T21:01:34.069Z,97817.56
2022-10-17T21:04:21.296Z,97818.66
2022-10-17T21:06:48.374Z,97829.16
2022-10-17T21:09:15.014Z,97842.31
2022-10-17T21:11:43.147Z,97857.34
2022-10-17T21:14:10.889Z,97849.13
2022-10-17T21:16:39.158Z,97861.13
2022-10-17T21:19:06.211Z,97873.19
2022-10-17T21:21:35.488Z,97879.53
2022-10-17T21:24:05.068Z,97882.50
2022-10-17T21:26:36.925Z,97891.91
2022-10-17T21:29:05.896Z,97897.16
2022-10-17T21:31:34.555Z,97897.47
2022-10-17T21:34:12.788Z,97895.75
2022-10-17T21:36:39.393Z,97895.75
2022-10-17T21:41:53.377Z,97871.56
2022-10-17T21:44:27.194Z,97867.31
2022-10-17T21:46:54.312Z,97850.63
2022-10-17T21:49:22.952Z,97843.81
2022-10-17T21:51:50.737Z,97845.16
2022-10-17T21:54:18.629Z,97829.66
2022-10-17T21:56:45.823Z,97822.22
2022-10-17T21:59:12.512Z,97814.78
2022-10-17T22:01:42.338Z,97816.66
2022-10-17T22:04:12.642Z,97824.91
2022-10-17T22:06:41.165Z,97811.41
2022-10-17T22:09:16.899Z,97820.78
2022-10-17T22:11:49.886Z,97822.72
2022-10-17T22:14:18.613Z,97826.47
2022-10-17T22:16:46.884Z,97828.06
2022-10-17T22:19:16.344Z,97840.88
2022-10-17T22:21:42.906Z,97854.03
2022-10-17T22:24:12.390Z,97852.91
2022-10-17T22:26:39.722Z,97849.59
2022-10-17T22:29:08.238Z,97844.78
2022-10-17T22:31:35.951Z,97849.59
2022-10-17T22:34:05.128Z,97839.53
2022-10-17T22:36:32.572Z,97831.66
2022-10-17T22:38:59.321Z,97830.88
2022-10-17T22:41:25.971Z,97831.97
2022-10-17T22:43:52.539Z,97829.78
2022-10-17T22:46:19.136Z,97830.53
2022-10-17T22:48:45.743Z,97835.03
2022-10-17T22:51:12.389Z,97826.41
2022-10-17T22:53:39.076Z,97824.88
2022-10-17T22:56:09.716Z,97817.31
2022-10-17T22:58:36.870Z,97806.81
2022-10-17T23:01:05.339Z,97803.06
2022-10-17T23:03:32.657Z,97829.28
2022-10-17T23:05:59.882Z,97801.13
2022-10-17T23:08:27.240Z,97792.06
2022-10-17T23:10:54.255Z,97795.13
2022-10-17T23:13:21.985Z,97789.09
2022-10-17T23:15:56.022Z,97790.97
2022-10-17T23:18:23.674Z,97784.97
2022-10-17T23:20:51.116Z,97778.53
2022-10-17T23:23:18.731Z,97770.19
2022-10-17T23:25:45.759Z,97765.47
2022-10-17T23:28:12.697Z,97755.28
2022-10-17T23:30:39.984Z,97749.97
2022-10-17T23:33:06.994Z,97754.53
2022-10-17T23:35:34.449Z,97758.75
2022-10-17T23:38:00.992Z,97754.38
2022-10-17T23:40:28.151Z,97755.56
2022-10-17T23:42:54.784Z,97769.75
2022-10-17T23:45:21.818Z,97765.63
2022-10-17T23:47:48.474Z,97753.63
2022-10-17T23:50:15.184Z,97767.81
2022-10-17T23:52:41.750Z,97751.66
2022-10-17T23:55:09.103Z,97752.84
2022-10-17T23:57:35.664Z,97743.09
